sensor_id;sensor_type;location;lat;lon;timestamp;pressure;altitude;pressure_sealevel;temperature;humidity
31357;BME280;60001;48.404;11.738;2022-12-18T00:01:19;97376.69;;;-4.29;82.25
31357;BME280;60001;48.404;11.738;2022-12-18T00:02:51;97369.63;;;-4.27;82.08
31357;BME280;60001;48.404;11.738;2022-12-18T00:04:25;97369.84;;;-4.39;82.67
31357;BME280;60001;48.404;11.738;2022-12-18T00:05:57;97375.16;;;-4.31;82.01
31357;BME280;60001;48.404;11.738;2022-12-18T00:07:29;97375.16;;;-4.31;81.95
31357;BME280;60001;48.404;11.738;2022-12-18T00:09:02;97381.41;;;-4.34;82.95
31357;BME280;60001;48.404;11.738;2022-12-18T00:10:35;97386.31;;;-4.31;82.57
31357;BME280;60001;48.404;11.738;2022-12-18T00:12:07;97384.94;;;-4.35;82.53
31357;BME280;60001;48.404;11.738;2022-12-18T00:13:38;97391.13;;;-4.47;82.24
31357;BME280;60001;48.404;11.738;2022-12-18T00:15:10;97397.41;;;-4.40;82.94
31357;BME280;60001;48.404;11.738;2022-12-18T00:16:44;97403.13;;;-4.36;82.21
31357;BME280;60001;48.404;11.738;2022-12-18T00:18:19;97406.38;;;-4.44;82.48
31357;BME280;60001;48.404;11.738;2022-12-18T00:19:51;97411.69;;;-4.36;82.95
31357;BME280;60001;48.404;11.738;2022-12-18T00:21:23;97398.13;;;-4.38;82.92
31357;BME280;60001;48.404;11.738;2022-12-18T00:22:55;97395.91;;;-4.43;83.34
31357;BME280;60001;48.404;11.738;2022-12-18T00:24:27;97394.94;;;-4.51;82.44
31357;BME280;60001;48.404;11.738;2022-12-18T00:25:59;97396.06;;;-4.44;83.10
31357;BME280;60001;48.404;11.738;2022-12-18T00:27:30;97398.94;;;-4.37;82.51
31357;BME280;60001;48.404;11.738;2022-12-18T00:29:04;97402.72;;;-4.32;82.36
31357;BME280;60001;48.404;11.738;2022-12-18T00:30:36;97401.25;;;-4.25;83.19
31357;BME280;60001;48.404;11.738;2022-12-18T00:32:07;97405.19;;;-4.30;82.48
31357;BME280;60001;48.404;11.738;2022-12-18T00:33:39;97412.63;;;-4.37;82.72
31357;BME280;60001;48.404;11.738;2022-12-18T00:35:10;97405.03;;;-4.29;82.87
31357;BME280;60001;48.404;11.738;2022-12-18T00:36:41;97398.13;;;-4.38;82.04
31357;BME280;60001;48.404;11.738;2022-12-18T00:38:14;97415.06;;;-4.35;83.13
31357;BME280;60001;48.404;11.738;2022-12-18T00:39:48;97411.16;;;-4.30;82.48
31357;BME280;60001;48.404;11.738;2022-12-18T00:41:22;97412.38;;;-4.24;83.41
31357;BME280;60001;48.404;11.738;2022-12-18T00:43:11;97405.03;;;-4.29;82.52
31357;BME280;60001;48.404;11.738;2022-12-18T00:44:43;97402.97;;;-4.45;83.30
31357;BME280;60001;48.404;11.738;2022-12-18T00:46:14;97404.75;;;-4.35;83.13
31357;BME280;60001;48.404;11.738;2022-12-18T00:47:48;97406.25;;;-4.33;83.25
31357;BME280;60001;48.404;11.738;2022-12-18T00:49:20;97409.63;;;-4.32;82.32
31357;BME280;60001;48.404;11.738;2022-12-18T00:50:52;97407.34;;;-4.26;82.69
31357;BME280;60001;48.404;11.738;2022-12-18T00:52:23;97406.16;;;-4.22;81.97
31357;BME280;60001;48.404;11.738;2022-12-18T00:53:56;97405.72;;;-4.27;82.13
31357;BME280;60001;48.404;11.738;2022-12-18T00:55:27;97403.28;;;-4.28;82.85
31357;BME280;60001;48.404;11.738;2022-12-18T00:56:59;97404.53;;;-4.23;82.75
31357;BME280;60001;48.404;11.738;2022-12-18T00:58:31;97404.78;;;-4.26;82.45
31357;BME280;60001;48.404;11.738;2022-12-18T01:00:03;97402.84;;;-4.33;82.40
31357;BME280;60001;48.404;11.738;2022-12-18T01:01:36;97409.94;;;-4.26;83.58
31357;BME280;60001;48.404;11.738;2022-12-18T01:03:08;97410.88;;;-4.27;83.51
31357;BME280;60001;48.404;11.738;2022-12-18T01:04:41;97423.25;;;-4.21;82.49
31357;BME280;60001;48.404;11.738;2022-12-18T01:06:14;97422.31;;;-4.20;82.49
31357;BME280;60001;48.404;11.738;2022-12-18T01:07:47;97416.47;;;-4.12;83.47
31357;BME280;60001;48.404;11.738;2022-12-18T01:09:20;97428.41;;;-4.21;82.81
31357;BME280;60001;48.404;11.738;2022-12-18T01:10:51;97428.69;;;-4.14;82.39
31357;BME280;60001;48.404;11.738;2022-12-18T01:12:22;97426.78;;;-4.12;82.52
31357;BME280;60001;48.404;11.738;2022-12-18T01:13:54;97422.34;;;-4.10;83.14
31357;BME280;60001;48.404;11.738;2022-12-18T01:15:26;97425.47;;;-4.06;82.59
31357;BME280;60001;48.404;11.738;2022-12-18T01:16:57;97418.00;;;-4.00;82.29
31357;BME280;60001;48.404;11.738;2022-12-18T01:18:29;97425.59;;;-3.98;82.65
31357;BME280;60001;48.404;11.738;2022-12-18T01:20:00;97427.38;;;-3.99;83.02
31357;BME280;60001;48.404;11.738;2022-12-18T01:21:32;97430.75;;;-3.98;82.38
31357;BME280;60001;48.404;11.738;2022-12-18T01:23:04;97432.00;;;-4.02;82.80
31357;BME280;60001;48.404;11.738;2022-12-18T01:24:37;97404.09;;;-4.18;82.76
31357;BME280;60001;48.404;11.738;2022-12-18T01:26:10;97426.69;;;-4.01;83.01
31357;BME280;60001;48.404;11.738;2022-12-18T01:27:42;97429.81;;;-3.97;82.28
31357;BME280;60001;48.404;11.738;2022-12-18T01:29:14;97431.19;;;-3.93;82.63
31357;BME280;60001;48.404;11.738;2022-12-18T01:30:45;97440.31;;;-3.89;82.43
31357;BME280;60001;48.404;11.738;2022-12-18T01:32:16;97442.03;;;-3.90;82.38
31357;BME280;60001;48.404;11.738;2022-12-18T01:33:48;97440.84;;;-3.95;81.85
31357;BME280;60001;48.404;11.738;2022-12-18T01:35:20;97440.41;;;-4.00;82.92
31357;BME280;60001;48.404;11.738;2022-12-18T01:36:52;97452.22;;;-3.98;82.52
31357;BME280;60001;48.404;11.738;2022-12-18T01:38:24;97462.44;;;-3.96;83.13
31357;BME280;60001;48.404;11.738;2022-12-18T01:39:57;97459.84;;;-3.96;82.32
31357;BME280;60001;48.404;11.738;2022-12-18T01:41:32;97465.13;;;-3.98;82.59
31357;BME280;60001;48.404;11.738;2022-12-18T01:43:18;97466.22;;;-4.00;82.51
31357;BME280;60001;48.404;11.738;2022-12-18T01:45:02;97470.28;;;-3.98;81.99
31357;BME280;60001;48.404;11.738;2022-12-18T01:46:35;97469.75;;;-3.92;82.53
31357;BME280;60001;48.404;11.738;2022-12-18T01:48:08;97462.16;;;-3.93;82.31
31357;BME280;60001;48.404;11.738;2022-12-18T01:49:39;97470.31;;;-3.88;81.74
31357;BME280;60001;48.404;11.738;2022-12-18T01:51:12;97474.53;;;-3.87;82.41
31357;BME280;60001;48.404;11.738;2022-12-18T01:52:47;97481.84;;;-3.82;82.82
31357;BME280;60001;48.404;11.738;2022-12-18T01:54:20;97476.44;;;-3.79;82.81
31357;BME280;60001;48.404;11.738;2022-12-18T01:55:56;97480.66;;;-3.78;82.70
31357;BME280;60001;48.404;11.738;2022-12-18T01:57:28;97482.84;;;-3.74;82.67
31357;BME280;60001;48.404;11.738;2022-12-18T01:59:03;97477.25;;;-3.69;82.53
31357;BME280;60001;48.404;11.738;2022-12-18T02:00:36;97477.25;;;-3.69;81.72
31357;BME280;60001;48.404;11.738;2022-12-18T02:02:08;97474.56;;;-3.68;81.85
31357;BME280;60001;48.404;11.738;2022-12-18T02:03:41;97472.09;;;-3.69;82.60
31357;BME280;60001;48.404;11.738;2022-12-18T02:05:17;97472.25;;;-3.71;82.34
31357;BME280;60001;48.404;11.738;2022-12-18T02:06:58;97468.16;;;-3.73;82.75
31357;BME280;60001;48.404;11.738;2022-12-18T02:08:38;97471.00;;;-3.76;82.68
31357;BME280;60001;48.404;11.738;2022-12-18T02:10:20;97463.81;;;-3.73;81.80
31357;BME280;60001;48.404;11.738;2022-12-18T02:12:05;97461.66;;;-3.68;82.10
31357;BME280;60001;48.404;11.738;2022-12-18T02:13:50;97457.84;;;-3.64;82.27
31357;BME280;60001;48.404;11.738;2022-12-18T02:15:30;97457.16;;;-3.66;81.67
31357;BME280;60001;48.404;11.738;2022-12-18T02:17:07;97451.72;;;-3.63;82.36
31357;BME280;60001;48.404;11.738;2022-12-18T02:18:47;97447.38;;;-3.62;82.70
31357;BME280;60001;48.404;11.738;2022-12-18T02:20:24;97446.56;;;-3.63;82.37
31357;BME280;60001;48.404;11.738;2022-12-18T02:22:12;97440.44;;;-3.71;82.30
31357;BME280;60001;48.404;11.738;2022-12-18T02:23:57;97442.06;;;-3.70;81.78
31357;BME280;60001;48.404;11.738;2022-12-18T02:26:00;97451.59;;;-3.71;81.49
31357;BME280;60001;48.404;11.738;2022-12-18T02:27:39;97449.16;;;-3.72;81.70
31357;BME280;60001;48.404;11.738;2022-12-18T02:29:16;97441.94;;;-3.78;82.06
31357;BME280;60001;48.404;11.738;2022-12-18T02:30:52;97444.94;;;-3.73;81.92
31357;BME280;60001;48.404;11.738;2022-12-18T02:32:27;97447.78;;;-3.76;81.63
31357;BME280;60001;48.404;11.738;2022-12-18T02:34:04;97450.34;;;-3.86;82.38
31357;BME280;60001;48.404;11.738;2022-12-18T02:35:41;97458.38;;;-3.79;83.38
31357;BME280;60001;48.404;11.738;2022-12-18T02:37:15;97457.03;;;-3.74;81.93
31357;BME280;60001;48.404;11.738;2022-12-18T02:38:50;97454.03;;;-3.69;83.00
31357;BME280;60001;48.404;11.738;2022-12-18T02:40:26;97450.78;;;-3.81;82.69
31357;BME280;60001;48.404;11.738;2022-12-18T02:42:00;97444.66;;;-3.80;83.04
31357;BME280;60001;48.404;11.738;2022-12-18T02:43:38;97449.41;;;-3.85;83.28
31357;BME280;60001;48.404;11.738;2022-12-18T02:45:10;97458.09;;;-3.76;83.16
31357;BME280;60001;48.404;11.738;2022-12-18T02:46:43;97451.59;;;-3.71;83.12
31357;BME280;60001;48.404;11.738;2022-12-18T02:48:17;97448.19;;;-3.71;81.78
31357;BME280;60001;48.404;11.738;2022-12-18T02:50:02;97448.19;;;-3.71;82.09
31357;BME280;60001;48.404;11.738;2022-12-18T02:51:44;97445.38;;;-3.68;82.10
31357;BME280;60001;48.404;11.738;2022-12-18T02:53:26;97450.25;;;-3.65;82.63
31357;BME280;60001;48.404;11.738;2022-12-18T02:55:17;97449.16;;;-3.72;82.12
31357;BME280;60001;48.404;11.738;2022-12-18T02:56:54;97447.25;;;-3.70;82.90
31357;BME280;60001;48.404;11.738;2022-12-18T02:58:35;97445.91;;;-3.74;82.78
31357;BME280;60001;48.404;11.738;2022-12-18T03:00:16;97460.16;;;-3.70;82.23
31357;BME280;60001;48.404;11.738;2022-12-18T03:01:54;97459.63;;;-3.64;81.95
31357;BME280;60001;48.404;11.738;2022-12-18T03:03:33;97461.94;;;-3.61;82.16
31357;BME280;60001;48.404;11.738;2022-12-18T03:05:12;97442.34;;;-3.64;82.48
31357;BME280;60001;48.404;11.738;2022-12-18T03:06:49;97443.44;;;-3.56;82.74
31357;BME280;60001;48.404;11.738;2022-12-18T03:08:24;97437.34;;;-3.55;82.79
31357;BME280;60001;48.404;11.738;2022-12-18T03:09:58;97435.84;;;-3.68;83.22
31357;BME280;60001;48.404;11.738;2022-12-18T03:11:34;97428.38;;;-3.61;82.18
31357;BME280;60001;48.404;11.738;2022-12-18T03:13:33;97434.47;;;-3.62;82.91
31357;BME280;60001;48.404;11.738;2022-12-18T03:15:10;97439.78;;;-3.64;82.21
31357;BME280;60001;48.404;11.738;2022-12-18T03:16:45;97438.16;;;-3.65;82.27
31357;BME280;60001;48.404;11.738;2022-12-18T03:18:23;97443.72;;;-3.69;82.72
31357;BME280;60001;48.404;11.738;2022-12-18T03:20:02;97446.19;;;-3.68;82.78
31357;BME280;60001;48.404;11.738;2022-12-18T03:21:40;97436.25;;;-3.63;82.76
31357;BME280;60001;48.404;11.738;2022-12-18T03:23:19;97443.97;;;-3.63;83.09
31357;BME280;60001;48.404;11.738;2022-12-18T03:24:54;97438.16;;;-3.74;83.35
31357;BME280;60001;48.404;11.738;2022-12-18T03:26:29;97449.97;;;-3.72;83.58
31357;BME280;60001;48.404;11.738;2022-12-18T03:28:05;97448.75;;;-3.68;83.52
31357;BME280;60001;48.404;11.738;2022-12-18T03:29:45;97435.53;;;-3.84;83.70
31357;BME280;60001;48.404;11.738;2022-12-18T03:31:21;97441.13;;;-3.69;82.72
31357;BME280;60001;48.404;11.738;2022-12-18T03:32:58;97436.63;;;-3.77;83.71
31357;BME280;60001;48.404;11.738;2022-12-18T03:34:35;97439.63;;;-3.72;83.18
31357;BME280;60001;48.404;11.738;2022-12-18T03:36:08;97447.81;;;-3.67;83.57
31357;BME280;60001;48.404;11.738;2022-12-18T03:37:41;97446.03;;;-3.66;82.63
31357;BME280;60001;48.404;11.738;2022-12-18T03:39:13;97443.97;;;-3.63;83.50
31357;BME280;60001;48.404;11.738;2022-12-18T03:40:53;97444.25;;;-3.56;83.25
31357;BME280;60001;48.404;11.738;2022-12-18T03:42:32;97443.31;;;-3.55;83.54
31357;BME280;60001;48.404;11.738;2022-12-18T03:44:13;97456.78;;;-3.61;83.19
31357;BME280;60001;48.404;11.738;2022-12-18T03:45:54;97452.97;;;-3.57;83.06
31357;BME280;60001;48.404;11.738;2022-12-18T03:47:38;97452.81;;;-3.55;83.45
31357;BME280;60001;48.404;11.738;2022-12-18T03:49:24;97455.53;;;-3.57;82.19
31357;BME280;60001;48.404;11.738;2022-12-18T03:51:02;97449.16;;;-3.72;82.14
31357;BME280;60001;48.404;11.738;2022-12-18T03:52:41;97449.44;;;-3.66;82.70
31357;BME280;60001;48.404;11.738;2022-12-18T03:54:15;97447.66;;;-3.75;82.32
31357;BME280;60001;48.404;11.738;2022-12-18T03:55:49;97438.94;;;-3.93;83.12
31357;BME280;60001;48.404;11.738;2022-12-18T03:57:25;97442.88;;;-3.79;83.35
31357;BME280;60001;48.404;11.738;2022-12-18T03:59:03;97445.91;;;-3.74;83.55
31357;BME280;60001;48.404;11.738;2022-12-18T04:00:35;97440.03;;;-3.76;83.50
31357;BME280;60001;48.404;11.738;2022-12-18T04:02:09;97442.88;;;-3.70;83.36
31357;BME280;60001;48.404;11.738;2022-12-18T04:03:43;97434.91;;;-3.67;82.96
31357;BME280;60001;48.404;11.738;2022-12-18T04:05:18;97441.81;;;-3.67;83.19
31357;BME280;60001;48.404;11.738;2022-12-18T04:06:52;97446.72;;;-3.74;82.09
31357;BME280;60001;48.404;11.738;2022-12-18T04:08:25;97451.19;;;-3.66;82.88
31357;BME280;60001;48.404;11.738;2022-12-18T04:10:00;97453.63;;;-3.65;82.06
31357;BME280;60001;48.404;11.738;2022-12-18T04:11:33;97452.44;;;-3.61;82.51
31357;BME280;60001;48.404;11.738;2022-12-18T04:13:05;97457.28;;;-3.77;83.07
31357;BME280;60001;48.404;11.738;2022-12-18T04:14:36;97455.41;;;-3.75;82.56
31357;BME280;60001;48.404;11.738;2022-12-18T04:16:08;97458.13;;;-3.67;82.33
31357;BME280;60001;48.404;11.738;2022-12-18T04:17:47;97457.69;;;-3.62;83.21
31357;BME280;60001;48.404;11.738;2022-12-18T04:19:19;97455.53;;;-3.57;82.14
31357;BME280;60001;48.404;11.738;2022-12-18T04:20:51;97455.69;;;-3.59;82.38
31357;BME280;60001;48.404;11.738;2022-12-18T04:22:22;97464.81;;;-3.54;82.10
31357;BME280;60001;48.404;11.738;2022-12-18T04:23:53;97466.69;;;-3.66;83.21
31357;BME280;60001;48.404;11.738;2022-12-18T04:25:24;97468.16;;;-3.64;82.24
31357;BME280;60001;48.404;11.738;2022-12-18T04:26:56;97464.78;;;-3.64;82.22
31357;BME280;60001;48.404;11.738;2022-12-18T04:28:28;97454.31;;;-3.72;82.82
31357;BME280;60001;48.404;11.738;2022-12-18T04:29:58;97446.84;;;-3.66;83.40
31357;BME280;60001;48.404;11.738;2022-12-18T04:31:31;97448.63;;;-3.56;82.90
31357;BME280;60001;48.404;11.738;2022-12-18T04:33:08;97445.59;;;-3.62;82.70
31357;BME280;60001;48.404;11.738;2022-12-18T04:34:39;97450.09;;;-3.64;83.05
31357;BME280;60001;48.404;11.738;2022-12-18T04:36:11;97458.53;;;-3.62;82.43
31357;BME280;60001;48.404;11.738;2022-12-18T04:37:43;97464.09;;;-3.56;82.20
31357;BME280;60001;48.404;11.738;2022-12-18T04:39:17;97467.25;;;-3.53;82.67
31357;BME280;60001;48.404;11.738;2022-12-18T04:40:49;97476.75;;;-3.53;82.49
31357;BME280;60001;48.404;11.738;2022-12-18T04:42:21;97484.75;;;-3.56;82.65
31357;BME280;60001;48.404;11.738;2022-12-18T04:43:52;97483.53;;;-3.62;82.65
31357;BME280;60001;48.404;11.738;2022-12-18T04:45:24;97481.50;;;-3.59;82.57
31357;BME280;60001;48.404;11.738;2022-12-18T04:46:54;97489.78;;;-3.55;82.86
31357;BME280;60001;48.404;11.738;2022-12-18T04:48:28;97484.75;;;-3.66;82.05
31357;BME280;60001;48.404;11.738;2022-12-18T04:49:59;97483.28;;;-3.59;82.37
31357;BME280;60001;48.404;11.738;2022-12-18T04:51:31;97483.94;;;-3.67;82.87
31357;BME280;60001;48.404;11.738;2022-12-18T04:53:02;97484.19;;;-3.70;81.95
31357;BME280;60001;48.404;11.738;2022-12-18T04:54:33;97467.88;;;-3.80;82.72
31357;BME280;60001;48.404;11.738;2022-12-18T04:56:08;97496.31;;;-3.61;82.04
31357;BME280;60001;48.404;11.738;2022-12-18T04:57:40;97493.97;;;-3.73;82.49
31357;BME280;60001;48.404;11.738;2022-12-18T04:59:11;97495.75;;;-3.74;82.11
31357;BME280;60001;48.404;11.738;2022-12-18T05:00:43;97489.91;;;-3.66;82.01
31357;BME280;60001;48.404;11.738;2022-12-18T05:02:15;97484.84;;;-3.77;82.00
31357;BME280;60001;48.404;11.738;2022-12-18T05:03:48;97492.22;;;-3.63;82.07
31357;BME280;60001;48.404;11.738;2022-12-18T05:05:22;97498.91;;;-3.61;82.46
31357;BME280;60001;48.404;11.738;2022-12-18T05:06:53;97490.88;;;-3.67;82.16
31357;BME280;60001;48.404;11.738;2022-12-18T05:08:25;97492.06;;;-3.81;82.43
31357;BME280;60001;48.404;11.738;2022-12-18T05:09:56;97497.91;;;-3.69;82.58
31357;BME280;60001;48.404;11.738;2022-12-18T05:11:28;97493.31;;;-3.66;82.47
31357;BME280;60001;48.404;11.738;2022-12-18T05:12:59;97483.41;;;-3.61;81.44
31357;BME280;60001;48.404;11.738;2022-12-18T05:14:30;97484.34;;;-3.62;81.84
31357;BME280;60001;48.404;11.738;2022-12-18T05:16:02;97489.63;;;-3.63;81.31
31357;BME280;60001;48.404;11.738;2022-12-18T05:17:34;97491.41;;;-3.64;81.74
31357;BME280;60001;48.404;11.738;2022-12-18T05:19:07;97497.38;;;-3.63;81.61
31357;BME280;60001;48.404;11.738;2022-12-18T05:20:39;97506.63;;;-3.61;82.06
31357;BME280;60001;48.404;11.738;2022-12-18T05:22:10;97506.38;;;-3.58;82.36
31357;BME280;60001;48.404;11.738;2022-12-18T05:23:42;97496.84;;;-3.57;81.93
31357;BME280;60001;48.404;11.738;2022-12-18T05:25:14;97489.78;;;-3.55;81.09
31357;BME280;60001;48.404;11.738;2022-12-18T05:26:44;97488.72;;;-3.52;81.15
31357;BME280;60001;48.404;11.738;2022-12-18T05:28:16;97494.69;;;-3.52;81.55
31357;BME280;60001;48.404;11.738;2022-12-18T05:29:47;97500.81;;;-3.53;80.95
31357;BME280;60001;48.404;11.738;2022-12-18T05:31:18;97497.38;;;-3.63;82.33
31357;BME280;60001;48.404;11.738;2022-12-18T05:32:50;97500.53;;;-3.60;81.70
31357;BME280;60001;48.404;11.738;2022-12-18T05:34:23;97492.88;;;-3.71;82.50
31357;BME280;60001;48.404;11.738;2022-12-18T05:35:57;97486.38;;;-3.75;82.93
31357;BME280;60001;48.404;11.738;2022-12-18T05:37:29;97506.50;;;-3.59;82.52
31357;BME280;60001;48.404;11.738;2022-12-18T05:39:01;97500.09;;;-3.55;82.37
31357;BME280;60001;48.404;11.738;2022-12-18T05:40:32;97504.97;;;-3.62;81.43
31357;BME280;60001;48.404;11.738;2022-12-18T05:42:04;97499.56;;;-3.59;81.63
31357;BME280;60001;48.404;11.738;2022-12-18T05:43:39;97508.28;;;-3.60;81.40
31357;BME280;60001;48.404;11.738;2022-12-18T05:45:10;97507.84;;;-3.65;82.16
31357;BME280;60001;48.404;11.738;2022-12-18T05:46:42;97500.66;;;-3.61;81.07
31357;BME280;60001;48.404;11.738;2022-12-18T05:48:15;97506.38;;;-3.58;81.52
31357;BME280;60001;48.404;11.738;2022-12-18T05:49:48;97515.19;;;-3.60;81.78
31357;BME280;60001;48.404;11.738;2022-12-18T05:51:22;97515.59;;;-3.55;81.85
31357;BME280;60001;48.404;11.738;2022-12-18T05:52:53;97522.28;;;-3.52;81.50
31357;BME280;60001;48.404;11.738;2022-12-18T05:54:26;97524.56;;;-3.49;82.36
31357;BME280;60001;48.404;11.738;2022-12-18T05:56:00;97519.94;;;-3.65;81.41
31357;BME280;60001;48.404;11.738;2022-12-18T05:57:31;97520.22;;;-3.59;81.36
31357;BME280;60001;48.404;11.738;2022-12-18T05:59:03;97519.56;;;-3.61;81.49
31357;BME280;60001;48.404;11.738;2022-12-18T06:00:37;97519.28;;;-3.58;82.05
31357;BME280;60001;48.404;11.738;2022-12-18T06:02:10;97519.69;;;-3.52;82.31
31357;BME280;60001;48.404;11.738;2022-12-18T06:03:42;97531.50;;;-3.50;81.96
31357;BME280;60001;48.404;11.738;2022-12-18T06:05:15;97524.97;;;-3.64;81.48
31357;BME280;60001;48.404;11.738;2022-12-18T06:06:47;97526.19;;;-3.58;81.08
31357;BME280;60001;48.404;11.738;2022-12-18T06:08:19;97521.72;;;-3.56;80.98
31357;BME280;60001;48.404;11.738;2022-12-18T06:09:51;97529.34;;;-3.54;81.24
31357;BME280;60001;48.404;11.738;2022-12-18T06:11:24;97531.38;;;-3.58;81.42
31357;BME280;60001;48.404;11.738;2022-12-18T06:12:56;97527.69;;;-3.55;81.73
31357;BME280;60001;48.404;11.738;2022-12-18T06:14:27;97524.28;;;-3.56;81.77
31357;BME280;60001;48.404;11.738;2022-12-18T06:16:02;97518.44;;;-3.68;81.21
31357;BME280;60001;48.404;11.738;2022-12-18T06:17:34;97520.97;;;-3.87;82.10
31357;BME280;60001;48.404;11.738;2022-12-18T06:19:06;97515.91;;;-3.98;82.11
31357;BME280;60001;48.404;11.738;2022-12-18T06:20:39;97525.25;;;-3.97;82.51
31357;BME280;60001;48.404;11.738;2022-12-18T06:22:11;97520.97;;;-3.87;82.40
31357;BME280;60001;48.404;11.738;2022-12-18T06:23:43;97524.34;;;-3.96;82.25
31357;BME280;60001;48.404;11.738;2022-12-18T06:25:14;97524.88;;;-4.02;82.60
31357;BME280;60001;48.404;11.738;2022-12-18T06:26:46;97531.81;;;-3.93;82.10
31357;BME280;60001;48.404;11.738;2022-12-18T06:28:18;97527.19;;;-3.90;81.74
31357;BME280;60001;48.404;11.738;2022-12-18T06:29:50;97527.31;;;-3.91;81.94
31357;BME280;60001;48.404;11.738;2022-12-18T06:31:21;97533.31;;;-3.91;82.21
31357;BME280;60001;48.404;11.738;2022-12-18T06:32:53;97530.63;;;-3.79;81.56
31357;BME280;60001;48.404;11.738;2022-12-18T06:34:25;97531.06;;;-3.74;81.42
31357;BME280;60001;48.404;11.738;2022-12-18T06:36:01;97532.13;;;-3.77;82.26
31357;BME280;60001;48.404;11.738;2022-12-18T06:37:33;97542.19;;;-3.74;81.21
31357;BME280;60001;48.404;11.738;2022-12-18T06:39:05;97537.91;;;-3.94;81.61
31357;BME280;60001;48.404;11.738;2022-12-18T06:40:37;97542.28;;;-3.85;81.40
31357;BME280;60001;48.404;11.738;2022-12-18T06:42:08;97541.78;;;-3.79;82.00
31357;BME280;60001;48.404;11.738;2022-12-18T06:43:40;97542.72;;;-3.80;82.20
31357;BME280;60001;48.404;11.738;2022-12-18T06:45:11;97548.31;;;-3.75;81.31
31357;BME280;60001;48.404;11.738;2022-12-18T06:46:42;97557.28;;;-3.69;81.10
31357;BME280;60001;48.404;11.738;2022-12-18T06:48:14;97549.41;;;-3.68;81.19
31357;BME280;60001;48.404;11.738;2022-12-18T06:49:46;97562.13;;;-3.76;80.70
31357;BME280;60001;48.404;11.738;2022-12-18T06:51:22;97556.16;;;-3.76;80.74
31357;BME280;60001;48.404;11.738;2022-12-18T06:52:54;97556.31;;;-3.78;81.58
31357;BME280;60001;48.404;11.738;2022-12-18T06:54:26;97558.38;;;-3.72;81.74
31357;BME280;60001;48.404;11.738;2022-12-18T06:56:02;97550.91;;;-3.75;81.19
31357;BME280;60001;48.404;11.738;2022-12-18T06:57:33;97563.13;;;-3.67;81.90
31357;BME280;60001;48.404;11.738;2022-12-18T06:59:05;97563.69;;;-3.64;80.88
31357;BME280;60001;48.404;11.738;2022-12-18T07:00:37;97558.09;;;-3.69;80.55
31357;BME280;60001;48.404;11.738;2022-12-18T07:02:10;97566.69;;;-3.68;81.11
31357;BME280;60001;48.404;11.738;2022-12-18T07:03:42;97571.56;;;-3.65;80.67
31357;BME280;60001;48.404;11.738;2022-12-18T07:05:14;97569.38;;;-3.70;81.68
31357;BME280;60001;48.404;11.738;2022-12-18T07:06:48;97568.03;;;-3.64;81.72
31357;BME280;60001;48.404;11.738;2022-12-18T07:08:20;97576.59;;;-3.64;81.38
31357;BME280;60001;48.404;11.738;2022-12-18T07:09:51;97571.69;;;-3.67;81.40
31357;BME280;60001;48.404;11.738;2022-12-18T07:11:23;97572.22;;;-3.73;81.34
31357;BME280;60001;48.404;11.738;2022-12-18T07:12:55;97576.28;;;-3.70;81.04
31357;BME280;60001;48.404;11.738;2022-12-18T07:14:27;97583.06;;;-3.79;81.73
31357;BME280;60001;48.404;11.738;2022-12-18T07:16:08;97580.91;;;-3.74;80.56
31357;BME280;60001;48.404;11.738;2022-12-18T07:17:40;97586.22;;;-3.75;81.73
31357;BME280;60001;48.404;11.738;2022-12-18T07:19:11;97595.44;;;-3.73;80.77
31357;BME280;60001;48.404;11.738;2022-12-18T07:20:42;97595.44;;;-3.73;81.92
31357;BME280;60001;48.404;11.738;2022-12-18T07:22:15;97601.56;;;-3.74;81.36
31357;BME280;60001;48.404;11.738;2022-12-18T07:23:47;97595.53;;;-3.84;81.42
31357;BME280;60001;48.404;11.738;2022-12-18T07:25:19;97598.41;;;-3.77;80.37
31357;BME280;60001;48.404;11.738;2022-12-18T07:26:51;97601.97;;;-3.99;80.64
31357;BME280;60001;48.404;11.738;2022-12-18T07:28:23;97597.69;;;-3.89;81.30
31357;BME280;60001;48.404;11.738;2022-12-18T07:29:54;97595.19;;;-4.00;81.01
31357;BME280;60001;48.404;11.738;2022-12-18T07:31:26;97591.97;;;-3.93;81.25
31357;BME280;60001;48.404;11.738;2022-12-18T07:32:58;97597.44;;;-3.86;80.88
31357;BME280;60001;48.404;11.738;2022-12-18T07:34:30;97589.81;;;-3.88;81.46
31357;BME280;60001;48.404;11.738;2022-12-18T07:36:04;97589.53;;;-3.94;80.55
31357;BME280;60001;48.404;11.738;2022-12-18T07:37:38;97596.03;;;-3.90;80.12
31357;BME280;60001;48.404;11.738;2022-12-18T07:39:11;97592.47;;;-3.99;80.62
31357;BME280;60001;48.404;11.738;2022-12-18T07:40:43;97591.66;;;-3.99;80.71
31357;BME280;60001;48.404;11.738;2022-12-18T07:42:15;97592.34;;;-3.97;81.47
31357;BME280;60001;48.404;11.738;2022-12-18T07:44:04;97601.38;;;-4.13;81.55
31357;BME280;60001;48.404;11.738;2022-12-18T07:45:36;97602.06;;;-4.10;81.04
31357;BME280;60001;48.404;11.738;2022-12-18T07:47:07;97597.91;;;-4.02;81.28
31357;BME280;60001;48.404;11.738;2022-12-18T07:48:39;97592.91;;;-3.94;81.65
31357;BME280;60001;48.404;11.738;2022-12-18T07:50:11;97589.34;;;-4.02;81.00
31357;BME280;60001;48.404;11.738;2022-12-18T07:51:43;97597.00;;;-3.91;81.63
31357;BME280;60001;48.404;11.738;2022-12-18T07:53:22;97590.53;;;-4.06;81.24
31357;BME280;60001;48.404;11.738;2022-12-18T07:54:54;97598.84;;;-4.03;81.25
31357;BME280;60001;48.404;11.738;2022-12-18T07:56:26;97595.50;;;-3.94;80.67
31357;BME280;60001;48.404;11.738;2022-12-18T07:58:01;97589.72;;;-4.07;80.45
31357;BME280;60001;48.404;11.738;2022-12-18T07:59:33;97598.44;;;-3.98;80.65
31357;BME280;60001;48.404;11.738;2022-12-18T08:01:05;97594.06;;;-4.07;80.40
31357;BME280;60001;48.404;11.738;2022-12-18T08:02:38;97589.69;;;-4.17;81.10
31357;BME280;60001;48.404;11.738;2022-12-18T08:04:10;97595.56;;;-4.05;81.65
31357;BME280;60001;48.404;11.738;2022-12-18T08:05:42;97593.16;;;-3.97;81.53
31357;BME280;60001;48.404;11.738;2022-12-18T08:07:14;97596.84;;;-3.90;81.52
31357;BME280;60001;48.404;11.738;2022-12-18T08:08:47;97593.75;;;-3.83;80.25
31357;BME280;60001;48.404;11.738;2022-12-18T08:10:20;97595.38;;;-3.82;80.53
31357;BME280;60001;48.404;11.738;2022-12-18T08:11:52;97588.28;;;-4.00;80.53